sensor_id;sensor_type;location;lat;lon;timestamp;temperature;humidity
47090;DHT22;32840;52.516;13.294;2024-02-14T00:01:07;5.50;99.90
47090;DHT22;32840;52.516;13.294;2024-02-14T00:03:53;5.50;99.90
47090;DHT22;32840;52.516;13.294;2024-02-14T00:06:38;5.60;99.90
47090;DHT22;32840;52.516;13.294;2024-02-14T00:09:24;5.70;99.90
47090;DHT22;32840;52.516;13.294;2024-02-14T00:12:09;5.70;99.90
47090;DHT22;32840;52.516;13.294;2024-02-14T00:15:01;5.70;99.90
47090;DHT22;32840;52.516;13.294;2024-02-14T00:17:51;5.70;99.90
47090;DHT22;32840;52.516;13.294;2024-02-14T00:20:36;5.70;99.90
47090;DHT22;32840;52.516;13.294;2024-02-14T00:23:26;5.70;99.90
47090;DHT22;32840;52.516;13.294;2024-02-14T00:26:11;5.70;99.90
47090;DHT22;32840;52.516;13.294;2024-02-14T00:28:58;5.70;99.90
47090;DHT22;32840;52.516;13.294;2024-02-14T00:31:44;5.70;99.90
47090;DHT22;32840;52.516;13.294;2024-02-14T00:34:37;5.50;99.90
47090;DHT22;32840;52.516;13.294;2024-02-14T00:37:22;5.50;99.90
47090;DHT22;32840;52.516;13.294;2024-02-14T00:40:10;5.50;99.90
47090;DHT22;32840;52.516;13.294;2024-02-14T00:42:59;5.50;99.90
47090;DHT22;32840;52.516;13.294;2024-02-14T00:45:46;5.60;99.90
47090;DHT22;32840;52.516;13.294;2024-02-14T00:48:32;5.70;99.90
47090;DHT22;32840;52.516;13.294;2024-02-14T00:51:18;5.70;99.90
47090;DHT22;32840;52.516;13.294;2024-02-14T00:54:04;5.70;99.90
47090;DHT22;32840;52.516;13.294;2024-02-14T00:56:53;5.70;99.90
47090;DHT22;32840;52.516;13.294;2024-02-14T00:59:41;5.60;99.90
47090;DHT22;32840;52.516;13.294;2024-02-14T01:02:32;5.60;99.90
47090;DHT22;32840;52.516;13.294;2024-02-14T01:05:18;5.70;99.90
47090;DHT22;32840;52.516;13.294;2024-02-14T01:08:05;5.70;99.90
47090;DHT22;32840;52.516;13.294;2024-02-14T01:10:53;5.70;99.90
47090;DHT22;32840;52.516;13.294;2024-02-14T01:13:38;5.60;99.90
47090;DHT22;32840;52.516;13.294;2024-02-14T01:16:29;5.60;99.90
47090;DHT22;32840;52.516;13.294;2024-02-14T01:19:14;5.60;99.90
47090;DHT22;32840;52.516;13.294;2024-02-14T01:21:59;5.60;99.90
47090;DHT22;32840;52.516;13.294;2024-02-14T01:24:43;5.70;99.90
47090;DHT22;32840;52.516;13.294;2024-02-14T01:27:29;5.70;99.90
47090;DHT22;32840;52.516;13.294;2024-02-14T01:30:27;5.70;99.90
47090;DHT22;32840;52.516;13.294;2024-02-14T01:33:12;5.60;99.90
47090;DHT22;32840;52.516;13.294;2024-02-14T01:35:58;5.70;99.90
47090;DHT22;32840;52.516;13.294;2024-02-14T01:38:43;5.70;99.90
47090;DHT22;32840;52.516;13.294;2024-02-14T01:41:30;5.70;99.90
47090;DHT22;32840;52.516;13.294;2024-02-14T01:44:15;5.70;99.90
47090;DHT22;32840;52.516;13.294;2024-02-14T01:47:06;5.70;99.90
47090;DHT22;32840;52.516;13.294;2024-02-14T01:49:51;5.70;99.90
47090;DHT22;32840;52.516;13.294;2024-02-14T01:52:41;5.70;99.90
47090;DHT22;32840;52.516;13.294;2024-02-14T01:55:27;5.70;99.90
47090;DHT22;32840;52.516;13.294;2024-02-14T01:58:13;5.80;99.90
47090;DHT22;32840;52.516;13.294;2024-02-14T02:00:58;5.80;99.90
47090;DHT22;32840;52.516;13.294;2024-02-14T02:03:43;5.80;99.90
47090;DHT22;32840;52.516;13.294;2024-02-14T02:06:28;5.80;99.90
47090;DHT22;32840;52.516;13.294;2024-02-14T02:09:19;5.80;99.90
47090;DHT22;32840;52.516;13.294;2024-02-14T02:15:21;5.80;99.90
47090;DHT22;32840;52.516;13.294;2024-02-14T02:18:06;5.80;99.90
47090;DHT22;32840;52.516;13.294;2024-02-14T02:20:52;5.80;99.90
47090;DHT22;32840;52.516;13.294;2024-02-14T02:23:37;5.80;99.90
47090;DHT22;32840;52.516;13.294;2024-02-14T02:26:22;5.80;99.90
47090;DHT22;32840;52.516;13.294;2024-02-14T02:29:08;5.80;99.90
47090;DHT22;32840;52.516;13.294;2024-02-14T02:31:56;5.80;99.90
47090;DHT22;32840;52.516;13.294;2024-02-14T02:34:42;5.80;99.90
47090;DHT22;32840;52.516;13.294;2024-02-14T02:37:33;5.80;99.90
47090;DHT22;32840;52.516;13.294;2024-02-14T02:40:18;5.80;99.90
47090;DHT22;32840;52.516;13.294;2024-02-14T02:43:06;5.80;99.90
47090;DHT22;32840;52.516;13.294;2024-02-14T02:45:52;5.80;99.90
47090;DHT22;32840;52.516;13.294;2024-02-14T02:48:38;5.70;99.90
47090;DHT22;32840;52.516;13.294;2024-02-14T02:51:24;5.70;99.90
47090;DHT22;32840;52.516;13.294;2024-02-14T02:54:12;5.60;99.90
47090;DHT22;32840;52.516;13.294;2024-02-14T02:57:00;5.60;99.90
47090;DHT22;32840;52.516;13.294;2024-02-14T02:59:59;5.60;99.90
47090;DHT22;32840;52.516;13.294;2024-02-14T03:02:44;5.60;99.90
47090;DHT22;32840;52.516;13.294;2024-02-14T03:05:30;5.60;99.90
47090;DHT22;32840;52.516;13.294;2024-02-14T03:08:19;5.60;99.90
47090;DHT22;32840;52.516;13.294;2024-02-14T03:11:07;5.60;99.90
47090;DHT22;32840;52.516;13.294;2024-02-14T03:13:53;5.70;99.90
47090;DHT22;32840;52.516;13.294;2024-02-14T03:16:38;5.60;99.90
47090;DHT22;32840;52.516;13.294;2024-02-14T03:19:32;5.60;99.90
47090;DHT22;32840;52.516;13.294;2024-02-14T03:22:27;5.60;99.90
47090;DHT22;32840;52.516;13.294;2024-02-14T03:25:13;5.60;99.90
47090;DHT22;32840;52.516;13.294;2024-02-14T03:28:13;5.60;99.90
47090;DHT22;32840;52.516;13.294;2024-02-14T03:31:12;5.60;99.90
47090;DHT22;32840;52.516;13.294;2024-02-14T03:34:00;5.60;99.90
47090;DHT22;32840;52.516;13.294;2024-02-14T03:36:46;5.60;99.90
47090;DHT22;32840;52.516;13.294;2024-02-14T03:39:31;5.70;99.90
47090;DHT22;32840;52.516;13.294;2024-02-14T03:42:20;5.70;99.90
47090;DHT22;32840;52.516;13.294;2024-02-14T03:45:07;5.70;99.90
47090;DHT22;32840;52.516;13.294;2024-02-14T03:47:52;5.80;99.90
47090;DHT22;32840;52.516;13.294;2024-02-14T03:50:39;5.80;99.90
47090;DHT22;32840;52.516;13.294;2024-02-14T03:53:24;5.80;99.90
47090;DHT22;32840;52.516;13.294;2024-02-14T03:56:10;5.80;99.90
47090;DHT22;32840;52.516;13.294;2024-02-14T03:58:57;5.80;99.90
47090;DHT22;32840;52.516;13.294;2024-02-14T04:01:46;5.80;99.90
47090;DHT22;32840;52.516;13.294;2024-02-14T04:04:31;5.80;99.90
47090;DHT22;32840;52.516;13.294;2024-02-14T04:07:18;5.80;99.90
47090;DHT22;32840;52.516;13.294;2024-02-14T04:10:04;5.80;99.90
47090;DHT22;32840;52.516;13.294;2024-02-14T04:12:55;5.80;99.90
47090;DHT22;32840;52.516;13.294;2024-02-14T04:15:43;5.90;99.90
47090;DHT22;32840;52.516;13.294;2024-02-14T04:18:28;5.80;99.90
47090;DHT22;32840;52.516;13.294;2024-02-14T04:21:18;5.80;99.90
47090;DHT22;32840;52.516;13.294;2024-02-14T04:24:03;5.90;99.90
47090;DHT22;32840;52.516;13.294;2024-02-14T04:26:49;5.90;99.90
47090;DHT22;32840;52.516;13.294;2024-02-14T04:29:35;5.90;99.90
47090;DHT22;32840;52.516;13.294;2024-02-14T04:32:23;5.80;99.90
47090;DHT22;32840;52.516;13.294;2024-02-14T04:35:09;5.80;99.90
47090;DHT22;32840;52.516;13.294;2024-02-14T04:37:55;5.90;99.90
47090;DHT22;32840;52.516;13.294;2024-02-14T04:40:41;5.90;99.90
47090;DHT22;32840;52.516;13.294;2024-02-14T04:43:26;5.90;99.90
47090;DHT22;32840;52.516;13.294;2024-02-14T04:46:11;5.90;99.90
47090;DHT22;32840;52.516;13.294;2024-02-14T04:48:55;5.90;99.90
47090;DHT22;32840;52.516;13.294;2024-02-14T04:51:40;5.90;99.90
47090;DHT22;32840;52.516;13.294;2024-02-14T04:54:27;5.90;99.90
47090;DHT22;32840;52.516;13.294;2024-02-14T04:57:12;5.90;99.90
47090;DHT22;32840;52.516;13.294;2024-02-14T04:59:58;6.00;99.90
47090;DHT22;32840;52.516;13.294;2024-02-14T05:02:45;6.00;99.90
47090;DHT22;32840;52.516;13.294;2024-02-14T05:05:29;6.00;99.90
47090;DHT22;32840;52.516;13.294;2024-02-14T05:08:15;6.00;99.90
47090;DHT22;32840;52.516;13.294;2024-02-14T05:11:00;6.10;99.90
47090;DHT22;32840;52.516;13.294;2024-02-14T05:13:45;6.10;99.90
47090;DHT22;32840;52.516;13.294;2024-02-14T05:16:32;6.10;99.90
47090;DHT22;32840;52.516;13.294;2024-02-14T05:19:25;6.10;99.90
47090;DHT22;32840;52.516;13.294;2024-02-14T05:22:10;6.10;99.90
47090;DHT22;32840;52.516;13.294;2024-02-14T05:24:56;6.10;99.90
47090;DHT22;32840;52.516;13.294;2024-02-14T05:27:45;6.10;99.90
47090;DHT22;32840;52.516;13.294;2024-02-14T05:30:31;6.10;99.90
47090;DHT22;32840;52.516;13.294;2024-02-14T05:33:17;6.20;99.90
47090;DHT22;32840;52.516;13.294;2024-02-14T05:36:06;6.20;99.90
47090;DHT22;32840;52.516;13.294;2024-02-14T05:38:51;6.20;99.90
47090;DHT22;32840;52.516;13.294;2024-02-14T05:41:37;6.20;99.90
47090;DHT22;32840;52.516;13.294;2024-02-14T05:44:27;6.20;99.90
47090;DHT22;32840;52.516;13.294;2024-02-14T05:47:14;6.20;99.90
47090;DHT22;32840;52.516;13.294;2024-02-14T05:50:05;6.20;99.90
47090;DHT22;32840;52.516;13.294;2024-02-14T05:52:51;6.20;99.90
47090;DHT22;32840;52.516;13.294;2024-02-14T05:55:38;6.20;99.90
47090;DHT22;32840;52.516;13.294;2024-02-14T05:58:28;6.20;99.90
47090;DHT22;32840;52.516;13.294;2024-02-14T06:01:16;6.20;99.90
47090;DHT22;32840;52.516;13.294;2024-02-14T06:04:01;6.30;99.90
47090;DHT22;32840;52.516;13.294;2024-02-14T06:06:45;6.30;99.90
47090;DHT22;32840;52.516;13.294;2024-02-14T06:09:30;6.40;99.90
47090;DHT22;32840;52.516;13.294;2024-02-14T06:12:15;6.30;99.90
47090;DHT22;32840;52.516;13.294;2024-02-14T06:15:05;6.30;99.90
47090;DHT22;32840;52.516;13.294;2024-02-14T06:17:55;6.30;99.90
47090;DHT22;32840;52.516;13.294;2024-02-14T06:20:40;6.40;99.90
47090;DHT22;32840;52.516;13.294;2024-02-14T06:23:31;6.30;99.90
47090;DHT22;32840;52.516;13.294;2024-02-14T06:26:19;6.30;99.90
47090;DHT22;32840;52.516;13.294;2024-02-14T06:29:04;6.40;99.90
47090;DHT22;32840;52.516;13.294;2024-02-14T06:31:49;6.40;99.90
47090;DHT22;32840;52.516;13.294;2024-02-14T06:34:35;6.50;99.90
47090;DHT22;32840;52.516;13.294;2024-02-14T06:37:20;6.40;99.90
47090;DHT22;32840;52.516;13.294;2024-02-14T06:40:05;6.50;99.90
47090;DHT22;32840;52.516;13.294;2024-02-14T06:42:53;6.50;99.90
47090;DHT22;32840;52.516;13.294;2024-02-14T06:45:40;6.50;99.90
47090;DHT22;32840;52.516;13.294;2024-02-14T06:48:31;6.60;99.90
47090;DHT22;32840;52.516;13.294;2024-02-14T06:51:17;6.70;99.90
47090;DHT22;32840;52.516;13.294;2024-02-14T06:54:05;6.70;99.90
47090;DHT22;32840;52.516;13.294;2024-02-14T06:56:51;6.70;99.90
47090;DHT22;32840;52.516;13.294;2024-02-14T06:59:38;6.70;99.90
47090;DHT22;32840;52.516;13.294;2024-02-14T07:02:32;6.70;99.90
47090;DHT22;32840;52.516;13.294;2024-02-14T07:05:18;6.70;99.90
47090;DHT22;32840;52.516;13.294;2024-02-14T07:08:03;6.80;99.90
47090;DHT22;32840;52.516;13.294;2024-02-14T07:10:49;6.80;99.90
47090;DHT22;32840;52.516;13.294;2024-02-14T07:13:40;6.80;99.90
47090;DHT22;32840;52.516;13.294;2024-02-14T07:16:28;6.80;99.90
47090;DHT22;32840;52.516;13.294;2024-02-14T07:19:43;6.90;99.90
47090;DHT22;32840;52.516;13.294;2024-02-14T07:22:33;6.90;99.90
47090;DHT22;32840;52.516;13.294;2024-02-14T07:25:19;7.00;99.90
47090;DHT22;32840;52.516;13.294;2024-02-14T07:31:11;7.10;99.90
47090;DHT22;32840;52.516;13.294;2024-02-14T07:33:57;7.10;99.90
47090;DHT22;32840;52.516;13.294;2024-02-14T07:36:43;7.10;99.90
47090;DHT22;32840;52.516;13.294;2024-02-14T07:39:30;7.20;99.90
47090;DHT22;32840;52.516;13.294;2024-02-14T07:42:18;7.20;99.90
47090;DHT22;32840;52.516;13.294;2024-02-14T07:45:08;7.20;99.90
47090;DHT22;32840;52.516;13.294;2024-02-14T07:47:55;7.20;99.90
47090;DHT22;32840;52.516;13.294;2024-02-14T07:50:49;7.20;99.90
47090;DHT22;32840;52.516;13.294;2024-02-14T07:53:36;7.20;99.90
47090;DHT22;32840;52.516;13.294;2024-02-14T07:56:24;7.20;99.90
47090;DHT22;32840;52.516;13.294;2024-02-14T07:59:09;7.30;99.90
47090;DHT22;32840;52.516;13.294;2024-02-14T08:01:57;7.30;99.90
47090;DHT22;32840;52.516;13.294;2024-02-14T08:04:44;7.30;99.90
47090;DHT22;32840;52.516;13.294;2024-02-14T08:07:31;7.30;99.90
47090;DHT22;32840;52.516;13.294;2024-02-14T08:10:26;7.40;99.90
47090;DHT22;32840;52.516;13.294;2024-02-14T08:13:12;7.40;99.90
47090;DHT22;32840;52.516;13.294;2024-02-14T08:16:05;7.50;99.90
47090;DHT22;32840;52.516;13.294;2024-02-14T08:19:14;7.50;99.90
47090;DHT22;32840;52.516;13.294;2024-02-14T08:22:04;7.50;99.90
47090;DHT22;32840;52.516;13.294;2024-02-14T08:24:50;7.60;99.90
47090;DHT22;32840;52.516;13.294;2024-02-14T08:27:35;7.70;99.90
47090;DHT22;32840;52.516;13.294;2024-02-14T08:30:22;7.80;99.90
47090;DHT22;32840;52.516;13.294;2024-02-14T08:33:07;7.80;99.90
47090;DHT22;32840;52.516;13.294;2024-02-14T08:35:52;7.80;99.90
47090;DHT22;32840;52.516;13.294;2024-02-14T08:38:38;7.90;99.90
47090;DHT22;32840;52.516;13.294;2024-02-14T08:41:24;8.00;99.90
47090;DHT22;32840;52.516;13.294;2024-02-14T08:44:09;8.00;99.90
47090;DHT22;32840;52.516;13.294;2024-02-14T08:46:57;8.00;99.90
47090;DHT22;32840;52.516;13.294;2024-02-14T08:49:42;8.00;99.90
47090;DHT22;32840;52.516;13.294;2024-02-14T08:52:27;8.10;99.90
47090;DHT22;32840;52.516;13.294;2024-02-14T08:55:13;8.20;99.90
47090;DHT22;32840;52.516;13.294;2024-02-14T08:58:03;8.30;99.90
47090;DHT22;32840;52.516;13.294;2024-02-14T09:00:50;8.30;99.90
47090;DHT22;32840;52.516;13.294;2024-02-14T09:03:40;8.40;99.90
47090;DHT22;32840;52.516;13.294;2024-02-14T09:06:28;8.40;99.90
47090;DHT22;32840;52.516;13.294;2024-02-14T09:09:13;8.40;99.90
47090;DHT22;32840;52.516;13.294;2024-02-14T09:11:58;8.40;99.90
47090;DHT22;32840;52.516;13.294;2024-02-14T09:14:47;8.40;99.90
47090;DHT22;32840;52.516;13.294;2024-02-14T09:17:33;8.40;99.90
47090;DHT22;32840;52.516;13.294;2024-02-14T09:20:18;8.40;99.90
47090;DHT22;32840;52.516;13.294;2024-02-14T09:23:04;8.40;99.90
47090;DHT22;32840;52.516;13.294;2024-02-14T09:25:49;8.40;99.90
47090;DHT22;32840;52.516;13.294;2024-02-14T09:28:35;8.40;99.90
47090;DHT22;32840;52.516;13.294;2024-02-14T09:31:21;8.30;99.90
47090;DHT22;32840;52.516;13.294;2024-02-14T09:34:07;8.40;99.90
47090;DHT22;32840;52.516;13.294;2024-02-14T09:36:52;8.50;99.90
47090;DHT22;32840;52.516;13.294;2024-02-14T09:39:38;8.60;99.90
47090;DHT22;32840;52.516;13.294;2024-02-14T09:42:35;8.60;99.90
47090;DHT22;32840;52.516;13.294;2024-02-14T09:45:31;8.60;99.90
47090;DHT22;32840;52.516;13.294;2024-02-14T09:48:18;8.50;99.90
47090;DHT22;32840;52.516;13.294;2024-02-14T09:51:04;8.50;99.90
47090;DHT22;32840;52.516;13.294;2024-02-14T09:53:51;8.50;99.90
47090;DHT22;32840;52.516;13.294;2024-02-14T09:56:39;8.40;99.90
47090;DHT22;32840;52.516;13.294;2024-02-14T09:59:24;8.50;99.90
47090;DHT22;32840;52.516;13.294;2024-02-14T10:02:09;8.40;99.90
47090;DHT22;32840;52.516;13.294;2024-02-14T10:04:54;8.30;99.90
47090;DHT22;32840;52.516;13.294;2024-02-14T10:07:44;8.40;99.90
47090;DHT22;32840;52.516;13.294;2024-02-14T10:10:34;8.40;99.90
47090;DHT22;32840;52.516;13.294;2024-02-14T10:13:22;8.50;99.90
47090;DHT22;32840;52.516;13.294;2024-02-14T10:16:07;8.50;99.90
47090;DHT22;32840;52.516;13.294;2024-02-14T10:18:53;8.50;99.90
47090;DHT22;32840;52.516;13.294;2024-02-14T10:21:37;8.60;99.90
47090;DHT22;32840;52.516;13.294;2024-02-14T10:24:28;8.70;99.90
47090;DHT22;32840;52.516;13.294;2024-02-14T10:27:15;8.60;99.90
47090;DHT22;32840;52.516;13.294;2024-02-14T10:30:01;8.60;99.90
47090;DHT22;32840;52.516;13.294;2024-02-14T10:32:47;8.60;99.90
47090;DHT22;32840;52.516;13.294;2024-02-14T10:35:36;8.60;99.90
47090;DHT22;32840;52.516;13.294;2024-02-14T10:38:23;8.60;99.90
47090;DHT22;32840;52.516;13.294;2024-02-14T10:41:20;8.60;99.90
47090;DHT22;32840;52.516;13.294;2024-02-14T10:44:09;8.60;99.90
47090;DHT22;32840;52.516;13.294;2024-02-14T10:47:00;8.60;99.90
47090;DHT22;32840;52.516;13.294;2024-02-14T10:50:03;8.70;99.90
47090;DHT22;32840;52.516;13.294;2024-02-14T10:52:57;8.80;99.90
47090;DHT22;32840;52.516;13.294;2024-02-14T10:55:48;8.80;99.90
47090;DHT22;32840;52.516;13.294;2024-02-14T10:58:33;8.80;99.90
47090;DHT22;32840;52.516;13.294;2024-02-14T11:01:33;8.90;99.90
47090;DHT22;32840;52.516;13.294;2024-02-14T11:04:21;9.10;99.90
47090;DHT22;32840;52.516;13.294;2024-02-14T11:07:43;9.20;99.90
47090;DHT22;32840;52.516;13.294;2024-02-14T11:11:05;9.30;99.90
47090;DHT22;32840;52.516;13.294;2024-02-14T11:13:57;9.30;99.90
47090;DHT22;32840;52.516;13.294;2024-02-14T11:16:45;9.20;99.90
47090;DHT22;32840;52.516;13.294;2024-02-14T11:19:32;9.20;99.90
47090;DHT22;32840;52.516;13.294;2024-02-14T11:22:26;9.30;99.90
47090;DHT22;32840;52.516;13.294;2024-02-14T11:25:45;9.20;99.90
47090;DHT22;32840;52.516;13.294;2024-02-14T11:28:40;9.30;99.90
47090;DHT22;32840;52.516;13.294;2024-02-14T11:31:39;9.30;99.90
47090;DHT22;32840;52.516;13.294;2024-02-14T11:34:24;9.30;99.90
47090;DHT22;32840;52.516;13.294;2024-02-14T11:37:11;9.40;99.90
47090;DHT22;32840;52.516;13.294;2024-02-14T11:39:58;9.50;99.90
47090;DHT22;32840;52.516;13.294;2024-02-14T11:42:48;9.50;99.90
47090;DHT22;32840;52.516;13.294;2024-02-14T11:45:58;9.50;99.90
47090;DHT22;32840;52.516;13.294;2024-02-14T11:48:44;9.40;99.90
47090;DHT22;32840;52.516;13.294;2024-02-14T11:51:36;9.50;99.90
47090;DHT22;32840;52.516;13.294;2024-02-14T11:54:56;9.40;99.90
47090;DHT22;32840;52.516;13.294;2024-02-14T11:57:41;9.50;99.90
47090;DHT22;32840;52.516;13.294;2024-02-14T12:00:26;9.70;99.90
47090;DHT22;32840;52.516;13.294;2024-02-14T12:03:20;9.70;99.90
47090;DHT22;32840;52.516;13.294;2024-02-14T12:06:06;9.60;99.90
47090;DHT22;32840;52.516;13.294;2024-02-14T12:08:51;9.60;99.90
47090;DHT22;32840;52.516;13.294;2024-02-14T12:11:36;9.60;99.90
47090;DHT22;32840;52.516;13.294;2024-02-14T12:14:28;9.60;99.90
47090;DHT22;32840;52.516;13.294;2024-02-14T12:17:16;9.60;99.90
47090;DHT22;32840;52.516;13.294;2024-02-14T12:20:12;9.60;99.90
47090;DHT22;32840;52.516;13.294;2024-02-14T12:22:58;9.70;99.90
47090;DHT22;32840;52.516;13.294;2024-02-14T12:25:46;9.80;99.90
47090;DHT22;32840;52.516;13.294;2024-02-14T12:28:32;9.80;99.90
47090;DHT22;32840;52.516;13.294;2024-02-14T12:31:26;9.80;99.90
47090;DHT22;32840;52.516;13.294;2024-02-14T12:34:13;9.90;99.90
47090;DHT22;32840;52.516;13.294;2024-02-14T12:36:58;10.00;99.90
47090;DHT22;32840;52.516;13.294;2024-02-14T12:39:49;10.00;99.90
47090;DHT22;32840;52.516;13.294;2024-02-14T12:42:40;10.20;99.90
47090;DHT22;32840;52.516;13.294;2024-02-14T12:45:25;10.20;99.90
47090;DHT22;32840;52.516;13.294;2024-02-14T12:48:12;10.20;99.90
47090;DHT22;32840;52.516;13.294;2024-02-14T12:50:58;10.30;99.90
47090;DHT22;32840;52.516;13.294;2024-02-14T12:53:46;10.20;99.90
47090;DHT22;32840;52.516;13.294;2024-02-14T12:56:32;10.30;99.90
47090;DHT22;32840;52.516;13.294;2024-02-14T12:59:19;10.20;99.90
47090;DHT22;32840;52.516;13.294;2024-02-14T13:02:06;10.20;99.90
47090;DHT22;32840;52.516;13.294;2024-02-14T13:05:16;10.10;99.90
47090;DHT22;32840;52.516;13.294;2024-02-14T13:08:01;10.20;99.90
47090;DHT22;32840;52.516;13.294;2024-02-14T13:10:47;10.20;99.90
47090;DHT22;32840;52.516;13.294;2024-02-14T13:14:09;10.20;99.90
47090;DHT22;32840;52.516;13.294;2024-02-14T13:16:57;10.20;99.90
47090;DHT22;32840;52.516;13.294;2024-02-14T13:19:43;10.10;99.90
47090;DHT22;32840;52.516;13.294;2024-02-14T13:22:59;10.10;99.90
47090;DHT22;32840;52.516;13.294;2024-02-14T13:25:45;10.20;99.90
47090;DHT22;32840;52.516;13.294;2024-02-14T13:28:40;10.20;99.90
47090;DHT22;32840;52.516;13.294;2024-02-14T13:31:28;10.20;99.90
47090;DHT22;32840;52.516;13.294;2024-02-14T13:34:57;10.10;99.90
47090;DHT22;32840;52.516;13.294;2024-02-14T13:37:43;10.10;99.90
47090;DHT22;32840;52.516;13.294;2024-02-14T13:40:31;10.10;99.90
47090;DHT22;32840;52.516;13.294;2024-02-14T13:43:17;10.10;99.90
47090;DHT22;32840;52.516;13.294;2024-02-14T13:46:04;10.10;99.90
47090;DHT22;32840;52.516;13.294;2024-02-14T13:48:54;10.10;99.90
47090;DHT22;32840;52.516;13.294;2024-02-14T13:51:48;10.10;99.90
47090;DHT22;32840;52.516;13.294;2024-02-14T13:54:37;10.10;99.90
47090;DHT22;32840;52.516;13.294;2024-02-14T13:57:26;10.20;99.90
47090;DHT22;32840;52.516;13.294;2024-02-14T14:00:12;10.30;99.90
47090;DHT22;32840;52.516;13.294;2024-02-14T14:02:59;10.30;99.90
47090;DHT22;32840;52.516;13.294;2024-02-14T14:05:45;10.30;99.90
47090;DHT22;32840;52.516;13.294;2024-02-14T14:08:31;10.30;99.90
47090;DHT22;32840;52.516;13.294;2024-02-14T14:11:17;10.30;99.90
47090;DHT22;32840;52.516;13.294;2024-02-14T14:14:02;10.30;99.90
47090;DHT22;32840;52.516;13.294;2024-02-14T14:16:47;10.30;99.90
47090;DHT22;32840;52.516;13.294;2024-02-14T14:19:34;10.30;99.90
47090;DHT22;32840;52.516;13.294;2024-02-14T14:22:18;10.40;99.90
47090;DHT22;32840;52.516;13.294;2024-02-14T14:25:24;10.40;99.90
47090;DHT22;32840;52.516;13.294;2024-02-14T14:28:10;10.40;99.90
47090;DHT22;32840;52.516;13.294;2024-02-14T14:30:56;10.40;99.90
47090;DHT22;32840;52.516;13.294;2024-02-14T14:33:44;10.50;99.90
47090;DHT22;32840;52.516;13.294;2024-02-14T14:36:35;10.50;99.90
47090;DHT22;32840;52.516;13.294;2024-02-14T14:42:18;10.60;99.90
47090;DHT22;32840;52.516;13.294;2024-02-14T14:45:16;10.60;99.90
47090;DHT22;32840;52.516;13.294;2024-02-14T14:48:02;10.60;99.90
47090;DHT22;32840;52.516;13.294;2024-02-14T14:50:48;10.60;99.90
47090;DHT22;32840;52.516;13.294;2024-02-14T14:53:34;10.70;99.90
47090;DHT22;32840;52.516;13.294;2024-02-14T14:56:20;10.70;99.90
47090;DHT22;32840;52.516;13.294;2024-02-14T14:59:15;10.70;99.90
47090;DHT22;32840;52.516;13.294;2024-02-14T15:02:10;10.80;99.90
47090;DHT22;32840;52.516;13.294;2024-02-14T15:05:13;10.80;99.90
47090;DHT22;32840;52.516;13.294;2024-02-14T15:12:37;10.80;99.90
47090;DHT22;32840;52.516;13.294;2024-02-14T15:15:22;10.80;99.90
47090;DHT22;32840;52.516;13.294;2024-02-14T15:18:12;10.80;99.90
47090;DHT22;32840;52.516;13.294;2024-02-14T15:20:59;10.90;99.90
47090;DHT22;32840;52.516;13.294;2024-02-14T15:23:45;10.90;99.90
47090;DHT22;32840;52.516;13.294;2024-02-14T15:26:59;10.90;99.90
47090;DHT22;32840;52.516;13.294;2024-02-14T15:29:53;10.90;99.90
47090;DHT22;32840;52.516;13.294;2024-02-14T15:33:19;10.90;99.90
47090;DHT22;32840;52.516;13.294;2024-02-14T15:36:18;10.80;99.90
47090;DHT22;32840;52.516;13.294;2024-02-14T15:39:08;10.80;99.90
47090;DHT22;32840;52.516;13.294;2024-02-14T15:41:57;10.80;99.90
47090;DHT22;32840;52.516;13.294;2024-02-14T15:44:43;10.80;99.90
47090;DHT22;32840;52.516;13.294;2024-02-14T15:47:32;10.70;99.90
47090;DHT22;32840;52.516;13.294;2024-02-14T15:50:21;10.80;99.90
47090;DHT22;32840;52.516;13.294;2024-02-14T15:53:36;10.70;99.90
47090;DHT22;32840;52.516;13.294;2024-02-14T15:56:27;10.80;99.90
47090;DHT22;32840;52.516;13.294;2024-02-14T15:59:12;10.80;99.90
47090;DHT22;32840;52.516;13.294;2024-02-14T16:02:21;10.70;99.90
47090;DHT22;32840;52.516;13.294;2024-02-14T16:05:12;10.80;99.90
47090;DHT22;32840;52.516;13.294;2024-02-14T16:07:59;10.80;99.90
47090;DHT22;32840;52.516;13.294;2024-02-14T16:10:47;10.70;99.90
47090;DHT22;32840;52.516;13.294;2024-02-14T16:13:40;10.70;99.90
47090;DHT22;32840;52.516;13.294;2024-02-14T16:16:31;10.70;99.90
47090;DHT22;32840;52.516;13.294;2024-02-14T16:19:18;10.70;99.90
47090;DHT22;32840;52.516;13.294;2024-02-14T16:22:04;10.70;99.90
47090;DHT22;32840;52.516;13.294;2024-02-14T16:24:53;10.70;99.90
47090;DHT22;32840;52.516;13.294;2024-02-14T16:27:39;10.70;99.90
47090;DHT22;32840;52.516;13.294;2024-02-14T16:30:25;10.70;99.90
47090;DHT22;32840;52.516;13.294;2024-02-14T16:33:10;10.80;99.90
47090;DHT22;32840;52.516;13.294;2024-02-14T16:35:55;10.80;99.90
47090;DHT22;32840;52.516;13.294;2024-02-14T16:38:41;10.70;99.90
47090;DHT22;32840;52.516;13.294;2024-02-14T16:41:28;10.80;99.90
47090;DHT22;32840;52.516;13.294;2024-02-14T16:44:13;10.70;99.90
47090;DHT22;32840;52.516;13.294;2024-02-14T16:47:02;10.80;99.90
47090;DHT22;32840;52.516;13.294;2024-02-14T16:49:48;10.70;99.90
47090;DHT22;32840;52.516;13.294;2024-02-14T16:52:33;10.70;99.90
47090;DHT22;32840;52.516;13.294;2024-02-14T16:55:20;10.70;99.90
47090;DHT22;32840;52.516;13.294;2024-02-14T16:58:06;10.70;99.90
47090;DHT22;32840;52.516;13.294;2024-02-14T17:00:51;10.70;99.90
47090;DHT22;32840;52.516;13.294;2024-02-14T17:03:38;10.70;99.90
47090;DHT22;32840;52.516;13.294;2024-02-14T17:06:23;10.70;99.90
47090;DHT22;32840;52.516;13.294;2024-02-14T17:09:12;10.70;99.90
47090;DHT22;32840;52.516;13.294;2024-02-14T17:12:00;10.70;99.90
47090;DHT22;32840;52.516;13.294;2024-02-14T17:14:46;10.80;99.90
47090;DHT22;32840;52.516;13.294;2024-02-14T17:17:43;10.70;99.90
47090;DHT22;32840;52.516;13.294;2024-02-14T17:20:29;10.70;99.90
47090;DHT22;32840;52.516;13.294;2024-02-14T17:23:19;10.70;99.90
47090;DHT22;32840;52.516;13.294;2024-02-14T17:26:24;10.70;99.90
47090;DHT22;32840;52.516;13.294;2024-02-14T17:29:10;10.70;99.90
47090;DHT22;32840;52.516;13.294;2024-02-14T17:31:59;10.70;99.90
47090;DHT22;32840;52.516;13.294;2024-02-14T17:34:45;10.80;99.90
47090;DHT22;32840;52.516;13.294;2024-02-14T17:37:34;10.70;99.90
47090;DHT22;32840;52.516;13.294;2024-02-14T17:40:43;10.70;99.90
47090;DHT22;32840;52.516;13.294;2024-02-14T17:43:30;10.70;99.90
47090;DHT22;32840;52.516;13.294;2024-02-14T17:46:21;10.70;99.90
47090;DHT22;32840;52.516;13.294;2024-02-14T17:49:10;10.70;99.90
47090;DHT22;32840;52.516;13.294;2024-02-14T17:51:57;10.70;99.90
47090;DHT22;32840;52.516;13.294;2024-02-14T17:54:44;10.70;99.90
47090;DHT22;32840;52.516;13.294;2024-02-14T17:58:11;10.70;99.90